Aérodrome :







RETROUVEZ-NOUS SUR...

 
LOGIN :

S'inscrire | Disclaimer

   EN    FR    IT 

 









Légende :    VFR   VFR Marginal   IFR   IFR Intensif   IFR Très Intensif
Visi : 
Plafond : 
>= 8 km
>= 3000ft
5 à 8 km
1000 à 3000 ft
1500m à 5 km
500 à 1000 ft
800 à 1500m
200 à 500 ft
< 800m
< 200 ft
Symboles :   Orages  Brouillard  Fortes neiges  Fortes précipitations  Vent > 20 kt







- Altitude de l'aérodrome : 108 ft
- Code IATA : YAY


CYAY - St Anthony

DERNIER METAR :
  • 251300Z AUTO 23016G22KT 9SM OVC140 17/10 A3018 RMK SLP223

METARs EXPIRÉS :
  • 251200Z AUTO 23015G21KT 9SM FEW150 15/12 A3018 RMK SLP223
  • 251100Z AUTO 23016KT 9SM CLR 14/11 A3018 RMK SLP223

TAF TAF CYAY
Valide du 25 à 14h jusqu'au 26 à 02h UTC


251339Z 2514/2602 24012G22KT P6SM BKN150
FM251600 24012G22KT P6SM SCT150 RMK FCST BASED ON AUTO OBS. NXT FCST BY 252000Z
Pas de NOTAMs connus pour ce terrain.



MET'MAP, la Météo Aéronautique d'un coup d'oeil ! - Copyright ORBIFLY Décembre 2007 - Disclaimer

ORBIFLY MET'MAP TEAM :

Programmation & Développement : Alexandra Zaïnal
Conception & Développement : Baudouin d'Aumeries
Co-Programmation & Développement : Marc-Olivier Méhu
Soutien technique & logistique : Manuel Goepfert

Contact : metmap@orbifly.com




SOURCES & CREDITS :

   NOAA